SHI4367 ORBI-OIMM
Flight info
| Callsign | SHI4367 |
|---|---|
| Flight time | N/A |
| Altitude | 37000 |
| Route | NOLDO B411 RIBUX |
| Aircraft | B733/M-SDE2E3FHIRW/S |
Departure
| Time | N/A |
|---|---|
| Airport | Baghdad International Airport / New Al Muthana Air Base (ORBI) |
Arrival
| Time | 2026-04-29 11:28 |
|---|---|
| Airport | Mashhad International Airport (OIMM) |
| Time | Latitude | Longitude | Altitude | Speed | Heading |
|---|---|---|---|---|---|
| 2026-04-29 10:04 | 34.30025 | 47.82496 | 37130 ft | 525 kts | 63° |
| 2026-04-29 10:04 | 34.31681 | 47.86388 | 37140 ft | 524 kts | 63° |
| 2026-04-29 10:04 | 34.34458 | 47.92928 | 37083 ft | 523 kts | 63° |
| 2026-04-29 10:05 | 34.37803 | 48.00815 | 37081 ft | 524 kts | 63° |
| 2026-04-29 10:05 | 34.41128 | 48.08681 | 37211 ft | 524 kts | 63° |
| 2026-04-29 10:06 | 34.44435 | 48.16516 | 37195 ft | 524 kts | 63° |
| 2026-04-29 10:06 | 34.47742 | 48.24374 | 37139 ft | 523 kts | 63° |
| 2026-04-29 10:07 | 34.51040 | 48.32222 | 37142 ft | 523 kts | 63° |
| 2026-04-29 10:07 | 34.54353 | 48.40133 | 37054 ft | 523 kts | 63° |
| 2026-04-29 10:08 | 34.58178 | 48.49308 | 37141 ft | 522 kts | 66° |
| 2026-04-29 10:08 | 34.60150 | 48.56245 | 37088 ft | 521 kts | 76° |
| 2026-04-29 10:09 | 34.62550 | 48.66103 | 37060 ft | 522 kts | 75° |
| 2026-04-29 10:09 | 34.64319 | 48.72950 | 37069 ft | 520 kts | 75° |
| 2026-04-29 10:10 | 34.66488 | 48.81330 | 37043 ft | 522 kts | 75° |
| 2026-04-29 10:10 | 34.67930 | 48.86918 | 37118 ft | 518 kts | 75° |
| 2026-04-29 10:11 | 34.70794 | 48.98076 | 37100 ft | 521 kts | 75° |
| 2026-04-29 10:11 | 34.72957 | 49.06524 | 37129 ft | 521 kts | 75° |
| 2026-04-29 10:12 | 34.75103 | 49.14941 | 37018 ft | 521 kts | 74° |
| 2026-04-29 10:12 | 34.76529 | 49.20547 | 37159 ft | 520 kts | 74° |
| 2026-04-29 10:12 | 34.77607 | 49.24794 | 37130 ft | 521 kts | 74° |
| 2026-04-29 10:13 | 34.79736 | 49.33198 | 37097 ft | 518 kts | 75° |
| 2026-04-29 10:13 | 34.81501 | 49.40191 | 37130 ft | 521 kts | 75° |
| 2026-04-29 10:14 | 34.83975 | 49.50017 | 37105 ft | 521 kts | 74° |
| 2026-04-29 10:14 | 34.85635 | 49.56628 | 37111 ft | 520 kts | 75° |
| 2026-04-29 10:15 | 34.87718 | 49.66567 | 37085 ft | 519 kts | 79° |
| 2026-04-29 10:15 | 34.89120 | 49.73663 | 37108 ft | 518 kts | 79° |
| 2026-04-29 10:16 | 34.90859 | 49.82209 | 37107 ft | 519 kts | 79° |
| 2026-04-29 10:16 | 34.92880 | 49.92170 | 37106 ft | 519 kts | 78° |
| 2026-04-29 10:17 | 34.94609 | 50.00734 | 37104 ft | 522 kts | 78° |
| 2026-04-29 10:17 | 34.96336 | 50.09315 | 37009 ft | 520 kts | 78° |
| 2026-04-29 10:18 | 34.98046 | 50.17865 | 37058 ft | 522 kts | 78° |
| 2026-04-29 10:18 | 34.99767 | 50.26488 | 37005 ft | 521 kts | 77° |
| 2026-04-29 10:19 | 35.01478 | 50.35064 | 37013 ft | 522 kts | 76° |
| 2026-04-29 10:19 | 35.02713 | 50.38874 | 37019 ft | 519 kts | 56° |
| 2026-04-29 10:19 | 35.04926 | 50.42271 | 37019 ft | 509 kts | 37° |
| 2026-04-29 10:20 | 35.10361 | 50.47882 | 36976 ft | 511 kts | 38° |
| 2026-04-29 10:20 | 35.14836 | 50.54696 | 37032 ft | 524 kts | 69° |
| 2026-04-29 10:21 | 35.15744 | 50.58952 | 37048 ft | 520 kts | 89° |
| 2026-04-29 10:21 | 35.15548 | 50.63334 | 37048 ft | 507 kts | 110° |
| 2026-04-29 10:21 | 35.14333 | 50.71804 | 37027 ft | 512 kts | 99° |
| 2026-04-29 10:22 | 35.14246 | 50.80487 | 36983 ft | 512 kts | 93° |
| 2026-04-29 10:22 | 35.14330 | 50.89215 | 36971 ft | 514 kts | 94° |
| 2026-04-29 10:23 | 35.14364 | 50.97953 | 36980 ft | 514 kts | 94° |
| 2026-04-29 10:23 | 35.14380 | 51.06715 | 36926 ft | 514 kts | 94° |
| 2026-04-29 10:24 | 35.14395 | 51.15406 | 36942 ft | 513 kts | 94° |
| 2026-04-29 10:24 | 35.14262 | 51.24150 | 36916 ft | 509 kts | 98° |
| 2026-04-29 10:25 | 35.13824 | 51.31272 | 36918 ft | 505 kts | 100° |
| 2026-04-29 10:25 | 35.13247 | 51.41305 | 36944 ft | 511 kts | 99° |
| 2026-04-29 10:26 | 35.12774 | 51.49988 | 36932 ft | 509 kts | 99° |
| 2026-04-29 10:26 | 35.12293 | 51.58583 | 37005 ft | 510 kts | 98° |
| 2026-04-29 10:27 | 35.11558 | 51.71553 | 36971 ft | 509 kts | 99° |
| 2026-04-29 10:28 | 35.11058 | 51.80235 | 36915 ft | 513 kts | 99° |
| 2026-04-29 10:28 | 35.10618 | 51.88919 | 36903 ft | 512 kts | 92° |
| 2026-04-29 10:28 | 35.11126 | 51.93189 | 36915 ft | 517 kts | 78° |
| 2026-04-29 10:29 | 35.12019 | 51.97517 | 36975 ft | 521 kts | 77° |
| 2026-04-29 10:29 | 35.13737 | 52.06100 | 36956 ft | 519 kts | 79° |
| 2026-04-29 10:30 | 35.15039 | 52.13302 | 36922 ft | 522 kts | 79° |
| 2026-04-29 10:30 | 35.16584 | 52.21930 | 36982 ft | 521 kts | 78° |
| 2026-04-29 10:31 | 35.18136 | 52.30576 | 36943 ft | 518 kts | 79° |
| 2026-04-29 10:31 | 35.19676 | 52.39204 | 36942 ft | 522 kts | 79° |
| 2026-04-29 10:32 | 35.21218 | 52.47884 | 36983 ft | 521 kts | 78° |
| 2026-04-29 10:32 | 35.22751 | 52.56546 | 36970 ft | 521 kts | 79° |
| 2026-04-29 10:33 | 35.24523 | 52.66608 | 36939 ft | 521 kts | 79° |
| 2026-04-29 10:33 | 35.25769 | 52.73891 | 36963 ft | 520 kts | 81° |
| 2026-04-29 10:34 | 35.27317 | 52.84013 | 37002 ft | 520 kts | 81° |
| 2026-04-29 10:34 | 35.28439 | 52.91209 | 37016 ft | 518 kts | 81° |
| 2026-04-29 10:35 | 35.29949 | 53.00888 | 36998 ft | 520 kts | 81° |
| 2026-04-29 10:35 | 35.31074 | 53.08135 | 36975 ft | 524 kts | 81° |
| 2026-04-29 10:36 | 35.32653 | 53.18354 | 36998 ft | 520 kts | 81° |
| 2026-04-29 10:36 | 35.33984 | 53.27037 | 36976 ft | 517 kts | 81° |
| 2026-04-29 10:37 | 35.35095 | 53.34300 | 36957 ft | 521 kts | 81° |
| 2026-04-29 10:37 | 35.35978 | 53.40103 | 37060 ft | 518 kts | 81° |
| 2026-04-29 10:37 | 35.36631 | 53.44403 | 37001 ft | 518 kts | 80° |
| 2026-04-29 10:38 | 35.37952 | 53.53134 | 37012 ft | 518 kts | 81° |
| 2026-04-29 10:38 | 35.39253 | 53.61779 | 37024 ft | 519 kts | 81° |
| 2026-04-29 10:39 | 35.40344 | 53.69067 | 36954 ft | 520 kts | 82° |
| 2026-04-29 10:39 | 35.41854 | 53.79226 | 36994 ft | 518 kts | 81° |
| 2026-04-29 10:40 | 35.43123 | 53.87792 | 37013 ft | 520 kts | 81° |
| 2026-04-29 10:40 | 35.44195 | 53.95058 | 37020 ft | 520 kts | 81° |
| 2026-04-29 10:41 | 35.45477 | 54.03786 | 37043 ft | 520 kts | 81° |
| 2026-04-29 10:41 | 35.46746 | 54.12472 | 37053 ft | 520 kts | 81° |
| 2026-04-29 10:42 | 35.48014 | 54.21209 | 37033 ft | 519 kts | 80° |
| 2026-04-29 10:42 | 35.49485 | 54.31389 | 37013 ft | 519 kts | 81° |
| 2026-04-29 10:43 | 35.50530 | 54.38663 | 36983 ft | 519 kts | 80° |
| 2026-04-29 10:43 | 35.51778 | 54.47392 | 37038 ft | 519 kts | 80° |
| 2026-04-29 10:44 | 35.53219 | 54.57532 | 37002 ft | 517 kts | 80° |
| 2026-04-29 10:44 | 35.54210 | 54.64742 | 36993 ft | 517 kts | 82° |
| 2026-04-29 10:45 | 35.55383 | 54.73497 | 36985 ft | 518 kts | 82° |
| 2026-04-29 10:45 | 35.56610 | 54.82224 | 36993 ft | 518 kts | 81° |
| 2026-04-29 10:46 | 35.57835 | 54.90958 | 36963 ft | 518 kts | 81° |
| 2026-04-29 10:46 | 35.59044 | 54.99643 | 36924 ft | 516 kts | 81° |
| 2026-04-29 10:47 | 35.60242 | 55.08373 | 36935 ft | 516 kts | 81° |
| 2026-04-29 10:47 | 35.61637 | 55.18492 | 36961 ft | 517 kts | 81° |
| 2026-04-29 10:48 | 35.62632 | 55.25718 | 36994 ft | 518 kts | 81° |
| 2026-04-29 10:48 | 35.63834 | 55.34485 | 36972 ft | 517 kts | 81° |
| 2026-04-29 10:49 | 35.65021 | 55.43215 | 37012 ft | 518 kts | 81° |
| 2026-04-29 10:49 | 35.66200 | 55.51910 | 36996 ft | 515 kts | 81° |
| 2026-04-29 10:50 | 35.66592 | 55.54819 | 37016 ft | 515 kts | 81° |
| 2026-04-29 10:50 | 35.66602 | 55.54889 | 37015 ft | 515 kts | 81° |
| 2026-04-29 10:51 | 35.66725 | 55.55822 | 36992 ft | 514 kts | 81° |
| 2026-04-29 10:51 | 35.67309 | 55.60202 | 36956 ft | 517 kts | 81° |
| 2026-04-29 10:52 | 35.69062 | 55.73273 | 36987 ft | 517 kts | 81° |
| 2026-04-29 10:52 | 35.70217 | 55.82047 | 36997 ft | 519 kts | 81° |
| 2026-04-29 10:53 | 35.71364 | 55.90785 | 37001 ft | 513 kts | 81° |
| 2026-04-29 10:53 | 35.72488 | 55.99376 | 36952 ft | 513 kts | 81° |
| 2026-04-29 10:54 | 35.73622 | 56.08084 | 36988 ft | 516 kts | 81° |
| 2026-04-29 10:54 | 35.74746 | 56.16768 | 36953 ft | 513 kts | 82° |
| 2026-04-29 10:55 | 35.75822 | 56.25140 | 36926 ft | 514 kts | 81° |
| 2026-04-29 10:55 | 35.76621 | 56.31380 | 36926 ft | 516 kts | 82° |
| 2026-04-29 10:56 | 35.77917 | 56.41571 | 36975 ft | 517 kts | 81° |
| 2026-04-29 10:56 | 35.79002 | 56.50300 | 36973 ft | 512 kts | 82° |
| 2026-04-29 10:57 | 35.80087 | 56.58965 | 36979 ft | 514 kts | 81° |
| 2026-04-29 10:57 | 35.80817 | 56.64753 | 36978 ft | 512 kts | 81° |
| 2026-04-29 10:58 | 35.82086 | 56.74893 | 37018 ft | 512 kts | 81° |
| 2026-04-29 10:58 | 35.83342 | 56.84980 | 36948 ft | 509 kts | 81° |
| 2026-04-29 10:59 | 35.84412 | 56.93633 | 36984 ft | 509 kts | 81° |
| 2026-04-29 10:59 | 35.85470 | 57.02239 | 36942 ft | 509 kts | 81° |
| 2026-04-29 11:00 | 35.86700 | 57.12308 | 37005 ft | 508 kts | 81° |
| 2026-04-29 11:00 | 35.87740 | 57.20892 | 36970 ft | 509 kts | 81° |
| 2026-04-29 11:01 | 35.88784 | 57.29539 | 37004 ft | 511 kts | 81° |
| 2026-04-29 11:02 | 35.90750 | 57.45995 | 36970 ft | 508 kts | 81° |
| 2026-04-29 11:02 | 35.91744 | 57.54620 | 36971 ft | 508 kts | 82° |
| 2026-04-29 11:03 | 35.92742 | 57.63277 | 36939 ft | 506 kts | 81° |
| 2026-04-29 11:03 | 35.93757 | 57.71919 | 36496 ft | 525 kts | 82° |
| 2026-04-29 11:03 | 35.94283 | 57.76423 | 35919 ft | 522 kts | 82° |
| 2026-04-29 11:04 | 35.94794 | 57.80815 | 35299 ft | 512 kts | 81° |
| 2026-04-29 11:04 | 35.95293 | 57.85104 | 34737 ft | 504 kts | 82° |
| 2026-04-29 11:04 | 35.95782 | 57.89335 | 34193 ft | 497 kts | 81° |
| 2026-04-29 11:04 | 35.96266 | 57.93523 | 33573 ft | 490 kts | 81° |
| 2026-04-29 11:05 | 35.96742 | 57.97659 | 33043 ft | 485 kts | 82° |
| 2026-04-29 11:05 | 35.97198 | 58.01627 | 32519 ft | 479 kts | 82° |
| 2026-04-29 11:05 | 35.97658 | 58.05649 | 31952 ft | 473 kts | 81° |
| 2026-04-29 11:05 | 35.98113 | 58.09634 | 31390 ft | 468 kts | 82° |
| 2026-04-29 11:06 | 35.98549 | 58.13589 | 30881 ft | 466 kts | 82° |
| 2026-04-29 11:06 | 35.98983 | 58.17538 | 30340 ft | 465 kts | 82° |
| 2026-04-29 11:06 | 35.99428 | 58.21528 | 29801 ft | 464 kts | 82° |
| 2026-04-29 11:06 | 35.99866 | 58.25435 | 29164 ft | 462 kts | 82° |
| 2026-04-29 11:07 | 36.00307 | 58.29374 | 28537 ft | 466 kts | 82° |
| 2026-04-29 11:07 | 36.00748 | 58.33333 | 27908 ft | 466 kts | 82° |
| 2026-04-29 11:07 | 36.01191 | 58.37310 | 27270 ft | 467 kts | 83° |
| 2026-04-29 11:07 | 36.01633 | 58.41285 | 26628 ft | 468 kts | 82° |
| 2026-04-29 11:08 | 36.02105 | 58.45283 | 25994 ft | 473 kts | 79° |
| 2026-04-29 11:08 | 36.02788 | 58.49266 | 25366 ft | 474 kts | 77° |
| 2026-04-29 11:08 | 36.03528 | 58.53229 | 24697 ft | 464 kts | 77° |
| 2026-04-29 11:08 | 36.04222 | 58.57017 | 24041 ft | 451 kts | 77° |
| 2026-04-29 11:09 | 36.04900 | 58.60760 | 23370 ft | 438 kts | 77° |
| 2026-04-29 11:09 | 36.05554 | 58.64396 | 22732 ft | 431 kts | 77° |
| 2026-04-29 11:09 | 36.06195 | 58.67981 | 22046 ft | 426 kts | 78° |
| 2026-04-29 11:09 | 36.06831 | 58.71535 | 21393 ft | 420 kts | 78° |
| 2026-04-29 11:10 | 36.07454 | 58.75026 | 20745 ft | 414 kts | 78° |
| 2026-04-29 11:10 | 36.08073 | 58.78500 | 20109 ft | 409 kts | 78° |
| 2026-04-29 11:10 | 36.08682 | 58.81915 | 19487 ft | 404 kts | 78° |
| 2026-04-29 11:10 | 36.09281 | 58.85286 | 18869 ft | 399 kts | 78° |
| 2026-04-29 11:11 | 36.09872 | 58.88620 | 18249 ft | 395 kts | 78° |
| 2026-04-29 11:11 | 36.10455 | 58.91875 | 17645 ft | 390 kts | 78° |
| 2026-04-29 11:11 | 36.11046 | 58.95157 | 17041 ft | 386 kts | 78° |
| 2026-04-29 11:11 | 36.11617 | 58.98356 | 16449 ft | 382 kts | 78° |
| 2026-04-29 11:12 | 36.12182 | 59.01551 | 15851 ft | 378 kts | 78° |
| 2026-04-29 11:12 | 36.12734 | 59.04688 | 15259 ft | 374 kts | 78° |
| 2026-04-29 11:12 | 36.13277 | 59.07847 | 14653 ft | 371 kts | 78° |
| 2026-04-29 11:12 | 36.13810 | 59.10931 | 14163 ft | 364 kts | 78° |
| 2026-04-29 11:13 | 36.14337 | 59.13964 | 13763 ft | 355 kts | 78° |
| 2026-04-29 11:13 | 36.14852 | 59.16914 | 13601 ft | 351 kts | 78° |
| 2026-04-29 11:13 | 36.15376 | 59.19923 | 13466 ft | 354 kts | 78° |
| 2026-04-29 11:13 | 36.15888 | 59.22862 | 13374 ft | 353 kts | 78° |
| 2026-04-29 11:14 | 36.16406 | 59.25841 | 13302 ft | 353 kts | 79° |
| 2026-04-29 11:14 | 36.16922 | 59.28808 | 13224 ft | 353 kts | 78° |
| 2026-04-29 11:14 | 36.17435 | 59.31766 | 13046 ft | 352 kts | 78° |
| 2026-04-29 11:14 | 36.17949 | 59.34755 | 12917 ft | 351 kts | 79° |
| 2026-04-29 11:15 | 36.18453 | 59.37697 | 12473 ft | 352 kts | 79° |
| 2026-04-29 11:15 | 36.18944 | 59.40551 | 12066 ft | 347 kts | 79° |
| 2026-04-29 11:15 | 36.19443 | 59.43447 | 11743 ft | 339 kts | 79° |
| 2026-04-29 11:15 | 36.19920 | 59.46219 | 11589 ft | 321 kts | 79° |
| 2026-04-29 11:16 | 36.20378 | 59.48869 | 11492 ft | 302 kts | 79° |
| 2026-04-29 11:16 | 36.20804 | 59.51354 | 11388 ft | 293 kts | 79° |
| 2026-04-29 11:16 | 36.21220 | 59.53785 | 11179 ft | 286 kts | 79° |
| 2026-04-29 11:16 | 36.21631 | 59.56164 | 11014 ft | 276 kts | 79° |
| 2026-04-29 11:17 | 36.22010 | 59.58429 | 11028 ft | 258 kts | 79° |
| 2026-04-29 11:17 | 36.22364 | 59.60532 | 11034 ft | 238 kts | 79° |
| 2026-04-29 11:17 | 36.22695 | 59.62492 | 11060 ft | 230 kts | 79° |
| 2026-04-29 11:17 | 36.23017 | 59.64398 | 11090 ft | 224 kts | 79° |
| 2026-04-29 11:18 | 36.23409 | 59.66283 | 10999 ft | 228 kts | 65° |
| 2026-04-29 11:18 | 36.24415 | 59.67784 | 10830 ft | 227 kts | 31° |
| 2026-04-29 11:18 | 36.25879 | 59.68388 | 10628 ft | 220 kts | 358° |
| 2026-04-29 11:18 | 36.27302 | 59.67949 | 10410 ft | 210 kts | 325° |
| 2026-04-29 11:19 | 36.28340 | 59.66685 | 10226 ft | 209 kts | 307° |
| 2026-04-29 11:19 | 36.29204 | 59.65230 | 10020 ft | 209 kts | 302° |
| 2026-04-29 11:19 | 36.29983 | 59.63683 | 9795 ft | 209 kts | 298° |
| 2026-04-29 11:19 | 36.30648 | 59.62083 | 9576 ft | 211 kts | 295° |
| 2026-04-29 11:20 | 36.31319 | 59.60426 | 9298 ft | 213 kts | 295° |
| 2026-04-29 11:20 | 36.31972 | 59.58805 | 9016 ft | 211 kts | 295° |
| 2026-04-29 11:20 | 36.32712 | 59.57215 | 8712 ft | 211 kts | 312° |
| 2026-04-29 11:20 | 36.33923 | 59.56241 | 8442 ft | 214 kts | 342° |
| 2026-04-29 11:21 | 36.35354 | 59.55737 | 8180 ft | 211 kts | 346° |
| 2026-04-29 11:21 | 36.36319 | 59.55427 | 7918 ft | 213 kts | 346° |
| 2026-04-29 11:21 | 36.37270 | 59.55119 | 7641 ft | 216 kts | 346° |
| 2026-04-29 11:21 | 36.38251 | 59.54797 | 7350 ft | 217 kts | 347° |
| 2026-04-29 11:22 | 36.42218 | 59.49229 | 6297 ft | 212 kts | 236° |
| 2026-04-29 11:23 | 36.40781 | 59.47670 | 6339 ft | 207 kts | 208° |
| 2026-04-29 11:23 | 36.39483 | 59.46852 | 6357 ft | 204 kts | 195° |
| 2026-04-29 11:23 | 36.38128 | 59.46449 | 6348 ft | 200 kts | 180° |
| 2026-04-29 11:23 | 36.37194 | 59.46493 | 6303 ft | 197 kts | 165° |
| 2026-04-29 11:24 | 36.35607 | 59.47490 | 6316 ft | 192 kts | 136° |
| 2026-04-29 11:24 | 36.34717 | 59.48725 | 6268 ft | 193 kts | 126° |
| 2026-04-29 11:24 | 36.33948 | 59.50117 | 6048 ft | 191 kts | 123° |
| 2026-04-29 11:24 | 36.33221 | 59.51430 | 5827 ft | 175 kts | 124° |
| 2026-04-29 11:25 | 36.32511 | 59.52576 | 5588 ft | 162 kts | 127° |
| 2026-04-29 11:25 | 36.31828 | 59.53572 | 5415 ft | 146 kts | 129° |
| 2026-04-29 11:25 | 36.31152 | 59.54477 | 5258 ft | 146 kts | 130° |
| 2026-04-29 11:25 | 36.30456 | 59.55386 | 5022 ft | 143 kts | 130° |
| 2026-04-29 11:26 | 36.29059 | 59.57114 | 4555 ft | 140 kts | 133° |
| 2026-04-29 11:26 | 36.28346 | 59.57945 | 4309 ft | 140 kts | 131° |
| 2026-04-29 11:26 | 36.27671 | 59.58805 | 4094 ft | 137 kts | 130° |
| 2026-04-29 11:27 | 36.27026 | 59.59660 | 3876 ft | 136 kts | 129° |
| 2026-04-29 11:27 | 36.26387 | 59.60517 | 3714 ft | 130 kts | 128° |
| 2026-04-29 11:27 | 36.25761 | 59.61369 | 3583 ft | 138 kts | 129° |
| 2026-04-29 11:27 | 36.25070 | 59.62259 | 3419 ft | 144 kts | 131° |
| 2026-04-29 11:28 | 36.24379 | 59.63156 | 3290 ft | 142 kts | 130° |
| 2026-04-29 11:28 | 36.23753 | 59.63971 | 3270 ft | 103 kts | 134° |
| 2026-04-29 11:28 | 36.23402 | 59.64404 | 3270 ft | 51 kts | 144° |
| 2026-04-29 11:28 | 36.23210 | 59.64516 | 3270 ft | 0 kts | 162° |
| 2026-04-29 11:29 | 36.23209 | 59.64517 | 3270 ft | 0 kts | 162° |
| 2026-04-29 11:29 | 36.23208 | 59.64517 | 3270 ft | 0 kts | 162° |
| 2026-04-29 11:29 | 36.23207 | 59.64518 | 3270 ft | 0 kts | 162° |
| 2026-04-29 11:29 | 36.23205 | 59.64519 | 3270 ft | 0 kts | 162° |
| 2026-04-29 11:30 | 36.23203 | 59.64520 | 3270 ft | 0 kts | 162° |
| 2026-04-29 11:30 | 36.23199 | 59.64521 | 3270 ft | 1 kts | 162° |
| 2026-04-29 11:30 | 36.23178 | 59.64528 | 3270 ft | 5 kts | 166° |
| 2026-04-29 11:30 | 36.23122 | 59.64540 | 3270 ft | 11 kts | 172° |
| 2026-04-29 11:31 | 36.23023 | 59.64557 | 3270 ft | 15 kts | 175° |
| 2026-04-29 11:31 | 36.22929 | 59.64506 | 3270 ft | 14 kts | 227° |
| 2026-04-29 11:31 | 36.22867 | 59.64413 | 3270 ft | 13 kts | 213° |
| 2026-04-29 11:31 | 36.22802 | 59.64379 | 3270 ft | 7 kts | 236° |
| 2026-04-29 11:32 | 36.22796 | 59.64336 | 3270 ft | 2 kts | 263° |
| 2026-04-29 11:32 | 36.22796 | 59.64321 | 3270 ft | 0 kts | 269° |